Time;durP1;ratioP1;P1;durP2;ratioP2;P2;SDS_P1;SDS_P2;PMS_P1;PMS_P2;Temp;Humidity;BMP_temperature;BMP_pressure;BME280_temperature;BME280_humidity;BME280_pressure;Samples;Min_cycle;Max_cycle;Signal;HPM_P1;HPM_P2
2022/03/08 00:02:08;;;;;;;6.97;3.33;;;;;;;;;;6068908;23;20040;-56
2022/03/08 00:04:36;;;;;;;9.60;4.35;;;;;;;;;;6084254;23;20076;-58
2022/03/08 00:07:02;;;;;;;10.38;4.50;;;;;;;;;;6061152;23;20090;-52
2022/03/08 00:09:29;;;;;;;11.73;4.00;;;;;;;;;;6109905;23;20036;-58
2022/03/08 00:11:55;;;;;;;11.75;3.92;;;;;;;;;;6067950;23;20036;-56
2022/03/08 00:14:22;;;;;;;9.48;4.22;;;;;;;;;;6058733;23;20120;-52
2022/03/08 00:16:49;;;;;;;10.18;4.82;;;;;;;;;;6052421;23;20032;-53
2022/03/08 00:19:15;;;;;;;9.68;3.65;;;;;;;;;;6061353;23;20127;-54
2022/03/08 00:21:43;;;;;;;11.02;3.88;;;;;;;;;;6105596;23;20112;-54
2022/03/08 00:24:12;;;;;;;8.23;3.27;;;;;;;;;;6085285;23;20051;-53
2022/03/08 00:26:39;;;;;;;13.15;4.32;;;;;;;;;;6075854;23;20357;-58
2022/03/08 00:29:05;;;;;;;11.30;4.50;;;;;;;;;;6061183;23;20094;-53
2022/03/08 00:31:32;;;;;;;12.02;4.35;;;;;;;;;;6102907;23;20497;-53
2022/03/08 00:34:00;;;;;;;11.82;4.13;;;;;;;;;;6040718;23;20037;-56
2022/03/08 00:36:26;;;;;;;10.05;3.53;;;;;;;;;;6030369;23;20044;-62
2022/03/08 00:38:54;;;;;;;11.25;3.50;;;;;;;;;;6052116;23;20102;-54
2022/03/08 00:41:21;;;;;;;9.33;4.00;;;;;;;;;;6063619;23;20069;-59
2022/03/08 00:43:48;;;;;;;8.35;2.83;;;;;;;;;;6076376;23;20289;-60
2022/03/08 00:46:17;;;;;;;12.35;3.67;;;;;;;;;;6086379;23;20049;-58
2022/03/08 00:48:43;;;;;;;9.35;3.40;;;;;;;;;;6078161;23;20044;-53
2022/03/08 00:51:10;;;;;;;11.20;3.97;;;;;;;;;;6088287;23;20055;-61
2022/03/08 00:53:37;;;;;;;7.82;3.30;;;;;;;;;;6080667;23;20040;-60
2022/03/08 00:56:07;;;;;;;10.38;4.03;;;;;;;;;;6086575;23;20044;-53
2022/03/08 00:58:36;;;;;;;7.85;3.53;;;;;;;;;;6076320;23;20104;-59
2022/03/08 01:01:03;;;;;;;10.40;3.30;;;;;;;;;;6085456;23;20111;-56
2022/03/08 01:03:30;;;;;;;7.75;3.67;;;;;;;;;;6067649;23;20070;-53
2022/03/08 01:05:56;;;;;;;10.60;4.55;;;;;;;;;;6085867;23;20114;-57
2022/03/08 01:08:23;;;;;;;11.32;3.90;;;;;;;;;;6074007;23;20036;-52
2022/03/08 01:10:49;;;;;;;9.20;3.92;;;;;;;;;;6060785;23;20067;-58
2022/03/08 01:13:17;;;;;;;11.10;3.53;;;;;;;;;;6054030;23;20496;-54
2022/03/08 01:15:44;;;;;;;8.85;3.15;;;;;;;;;;6061089;23;20036;-57
2022/03/08 01:18:11;;;;;;;8.90;3.60;;;;;;;;;;6053071;23;20075;-59
2022/03/08 01:20:38;;;;;;;8.88;3.97;;;;;;;;;;6060363;23;20112;-57
2022/03/08 01:23:05;;;;;;;8.82;3.35;;;;;;;;;;6109064;23;20036;-58
2022/03/08 01:25:31;;;;;;;10.98;3.63;;;;;;;;;;6091050;23;20043;-56
2022/03/08 01:27:58;;;;;;;11.55;3.90;;;;;;;;;;6061115;23;20040;-58
2022/03/08 01:30:26;;;;;;;8.75;3.90;;;;;;;;;;6066262;23;20036;-55
2022/03/08 01:32:53;;;;;;;9.17;3.80;;;;;;;;;;6063212;23;20044;-62
2022/03/08 01:35:21;;;;;;;10.82;4.13;;;;;;;;;;6073611;23;20296;-58
2022/03/08 01:37:47;;;;;;;8.55;3.03;;;;;;;;;;6085489;23;20040;-54
2022/03/08 01:40:15;;;;;;;7.45;3.30;;;;;;;;;;6065021;23;20067;-57
2022/03/08 01:42:42;;;;;;;7.65;3.25;;;;;;;;;;6110508;23;20047;-56
2022/03/08 01:45:10;;;;;;;11.93;3.78;;;;;;;;;;6103865;23;20040;-61
2022/03/08 01:47:38;;;;;;;8.05;3.30;;;;;;;;;;6076522;23;20086;-54
2022/03/08 01:50:06;;;;;;;8.20;3.03;;;;;;;;;;6072831;23;20067;-57
2022/03/08 01:52:33;;;;;;;9.00;3.20;;;;;;;;;;6060945;23;20314;-53
2022/03/08 01:55:00;;;;;;;8.52;3.13;;;;;;;;;;6055964;23;20036;-59
2022/03/08 01:57:27;;;;;;;9.85;3.67;;;;;;;;;;6061087;23;20076;-56
2022/03/08 01:59:54;;;;;;;14.07;3.40;;;;;;;;;;6055058;23;20050;-60
2022/03/08 02:02:21;;;;;;;9.23;3.70;;;;;;;;;;6061048;23;20036;-54
2022/03/08 02:04:51;;;;;;;10.65;4.03;;;;;;;;;;6057393;23;20044;-53
2022/03/08 02:07:18;;;;;;;9.52;3.22;;;;;;;;;;6080832;23;20115;-55
2022/03/08 02:09:44;;;;;;;9.30;3.03;;;;;;;;;;6085289;23;20032;-54
2022/03/08 02:12:11;;;;;;;8.63;3.58;;;;;;;;;;6076638;23;20090;-49
2022/03/08 02:14:38;;;;;;;7.50;3.47;;;;;;;;;;6085028;23;20040;-56
2022/03/08 02:17:05;;;;;;;9.43;3.55;;;;;;;;;;6060655;23;20058;-54
2022/03/08 02:19:31;;;;;;;9.00;3.35;;;;;;;;;;6060622;23;20044;-60
2022/03/08 02:21:59;;;;;;;8.20;3.35;;;;;;;;;;6054496;23;20040;-61
2022/03/08 02:24:26;;;;;;;11.40;3.50;;;;;;;;;;6109586;23;20028;-54
2022/03/08 02:26:53;;;;;;;8.10;3.40;;;;;;;;;;6063904;23;20043;-58
2022/03/08 02:29:19;;;;;;;9.13;3.17;;;;;;;;;;6086071;23;20040;-58
2022/03/08 02:31:47;;;;;;;8.65;3.00;;;;;;;;;;6028582;23;20032;-52
2022/03/08 02:34:15;;;;;;;7.22;2.92;;;;;;;;;;6073919;23;20039;-56
2022/03/08 02:36:42;;;;;;;7.82;2.85;;;;;;;;;;6103592;23;20036;-57
2022/03/08 02:39:09;;;;;;;6.90;2.83;;;;;;;;;;6108906;23;20063;-58
2022/03/08 02:41:36;;;;;;;7.60;2.87;;;;;;;;;;6054673;23;20040;-57
2022/03/08 02:44:05;;;;;;;6.90;2.90;;;;;;;;;;6107730;23;20103;-54
2022/03/08 02:46:32;;;;;;;8.32;2.78;;;;;;;;;;6055502;23;20082;-54
2022/03/08 02:48:59;;;;;;;10.60;2.88;;;;;;;;;;6109356;23;20039;-56
2022/03/08 02:51:25;;;;;;;6.50;2.83;;;;;;;;;;6061705;23;20032;-54
2022/03/08 02:53:52;;;;;;;6.55;2.70;;;;;;;;;;6054924;23;20033;-59
2022/03/08 02:56:21;;;;;;;7.55;2.75;;;;;;;;;;6061940;23;20141;-59
2022/03/08 02:58:48;;;;;;;4.80;2.47;;;;;;;;;;6073611;23;20063;-61
2022/03/08 03:01:14;;;;;;;9.77;2.72;;;;;;;;;;6078788;23;20028;-60
2022/03/08 03:03:41;;;;;;;6.30;2.90;;;;;;;;;;6105607;23;20040;-58
2022/03/08 03:06:07;;;;;;;8.00;3.05;;;;;;;;;;6060276;23;20063;-55
2022/03/08 03:08:36;;;;;;;7.45;2.92;;;;;;;;;;6066346;23;20032;-59
2022/03/08 03:11:02;;;;;;;6.78;2.72;;;;;;;;;;6085341;23;20055;-56
2022/03/08 03:13:31;;;;;;;6.35;3.00;;;;;;;;;;6078263;23;20036;-54
2022/03/08 03:15:57;;;;;;;4.85;1.77;;;;;;;;;;6084996;23;20044;-54
2022/03/08 03:18:24;;;;;;;4.85;2.03;;;;;;;;;;6073228;23;20032;-55
2022/03/08 03:20:50;;;;;;;6.10;2.30;;;;;;;;;;6060806;23;20090;-52
2022/03/08 03:23:17;;;;;;;5.80;2.45;;;;;;;;;;6102178;23;20040;-51
2022/03/08 03:25:43;;;;;;;6.10;2.53;;;;;;;;;;6060076;23;20036;-55
2022/03/08 03:28:10;;;;;;;5.30;2.60;;;;;;;;;;6053293;23;20044;-53
2022/03/08 03:30:38;;;;;;;7.57;2.90;;;;;;;;;;6045943;23;20060;-54
2022/03/08 03:33:07;;;;;;;5.73;2.47;;;;;;;;;;6042053;23;20036;-57
2022/03/08 03:35:34;;;;;;;5.70;2.72;;;;;;;;;;6078625;23;20274;-56
2022/03/08 03:38:01;;;;;;;6.03;3.03;;;;;;;;;;6084319;23;20052;-58
2022/03/08 03:40:27;;;;;;;4.70;2.05;;;;;;;;;;6058605;23;20100;-54
2022/03/08 03:42:54;;;;;;;7.10;3.05;;;;;;;;;;6061004;23;20089;-53
2022/03/08 03:45:21;;;;;;;7.22;2.97;;;;;;;;;;6054037;23;20040;-55
2022/03/08 03:47:48;;;;;;;5.53;2.35;;;;;;;;;;6060545;23;20040;-55
2022/03/08 03:50:15;;;;;;;8.67;2.93;;;;;;;;;;6067073;23;20101;-56
2022/03/08 03:52:41;;;;;;;7.63;2.33;;;;;;;;;;6085537;23;20047;-58
2022/03/08 03:55:09;;;;;;;6.07;2.58;;;;;;;;;;6071939;23;20032;-58
2022/03/08 03:57:35;;;;;;;7.45;2.80;;;;;;;;;;6062039;23;20119;-60
2022/03/08 04:00:04;;;;;;;6.18;2.45;;;;;;;;;;6057035;23;20062;-60
2022/03/08 04:02:31;;;;;;;9.55;3.10;;;;;;;;;;6111006;23;20039;-55
2022/03/08 04:04:59;;;;;;;6.65;2.30;;;;;;;;;;6049860;23;20068;-59
2022/03/08 04:07:25;;;;;;;7.25;2.78;;;;;;;;;;6056294;23;20183;-60
2022/03/08 04:09:52;;;;;;;5.93;2.30;;;;;;;;;;6049562;23;20036;-60
2022/03/08 04:12:18;;;;;;;7.00;2.97;;;;;;;;;;6056434;23;20047;-58
2022/03/08 04:14:46;;;;;;;8.68;3.00;;;;;;;;;;6055979;23;20099;-59
2022/03/08 04:17:13;;;;;;;7.55;2.50;;;;;;;;;;6053111;23;20024;-61
2022/03/08 04:19:42;;;;;;;6.32;2.53;;;;;;;;;;6055453;23;20045;-59
2022/03/08 04:22:09;;;;;;;4.15;1.92;;;;;;;;;;6049967;23;20047;-60
2022/03/08 04:24:38;;;;;;;6.07;2.60;;;;;;;;;;6056605;23;20055;-60
2022/03/08 04:27:07;;;;;;;5.25;2.03;;;;;;;;;;6051677;23;20063;-60
2022/03/08 04:29:34;;;;;;;8.75;2.90;;;;;;;;;;6059580;23;20037;-60
2022/03/08 04:32:00;;;;;;;6.82;2.47;;;;;;;;;;6053684;23;20036;-59
2022/03/08 04:34:27;;;;;;;6.38;2.67;;;;;;;;;;6058216;23;20044;-58
2022/03/08 04:36:54;;;;;;;6.35;2.58;;;;;;;;;;6051218;23;20047;-54
2022/03/08 04:39:22;;;;;;;4.60;2.28;;;;;;;;;;6057096;23;20096;-58
2022/03/08 04:41:48;;;;;;;7.50;2.73;;;;;;;;;;6049797;23;20111;-56
2022/03/08 04:44:15;;;;;;;7.20;2.70;;;;;;;;;;6056111;23;20037;-59
2022/03/08 04:46:42;;;;;;;4.32;1.95;;;;;;;;;;6050149;23;20086;-54
2022/03/08 04:49:11;;;;;;;9.52;2.38;;;;;;;;;;6056522;23;20047;-53
2022/03/08 04:51:37;;;;;;;7.90;3.00;;;;;;;;;;6050049;23;20036;-56
2022/03/08 04:54:07;;;;;;;5.00;2.22;;;;;;;;;;6056385;23;20068;-58
2022/03/08 04:56:35;;;;;;;2.10;1.08;;;;;;;;;;6051224;23;20041;-55
2022/03/08 04:59:01;;;;;;;3.90;1.85;;;;;;;;;;6056456;23;20045;-56
2022/03/08 05:01:28;;;;;;;4.15;1.88;;;;;;;;;;6057091;23;20064;-53
2022/03/08 05:03:56;;;;;;;6.20;2.83;;;;;;;;;;6063820;23;20056;-52
2022/03/08 05:06:22;;;;;;;4.35;2.08;;;;;;;;;;6085322;23;20043;-52
2022/03/08 05:08:49;;;;;;;8.20;3.00;;;;;;;;;;6077144;23;20036;-54
2022/03/08 05:11:15;;;;;;;5.80;2.63;;;;;;;;;;6085865;23;20090;-51
2022/03/08 05:13:46;;;;;;;5.30;2.22;;;;;;;;;;6073484;23;20062;-53
2022/03/08 05:16:13;;;;;;;5.82;2.50;;;;;;;;;;6085405;23;20040;-55
2022/03/08 05:18:39;;;;;;;6.80;2.63;;;;;;;;;;6062390;23;20131;-56
2022/03/08 05:21:06;;;;;;;5.95;2.22;;;;;;;;;;6056734;23;20096;-55
2022/03/08 05:23:33;;;;;;;7.55;2.40;;;;;;;;;;6063982;23;20036;-57
2022/03/08 05:25:59;;;;;;;5.50;2.25;;;;;;;;;;6084952;23;20044;-52
2022/03/08 05:28:26;;;;;;;9.15;2.80;;;;;;;;;;6078926;23;20055;-55
2022/03/08 05:30:54;;;;;;;4.85;2.10;;;;;;;;;;6051625;23;20034;-55
2022/03/08 05:33:20;;;;;;;5.60;2.10;;;;;;;;;;6035056;23;20032;-50
2022/03/08 05:35:47;;;;;;;5.88;2.70;;;;;;;;;;6056591;23;20235;-53
2022/03/08 05:38:13;;;;;;;5.70;1.98;;;;;;;;;;6050131;23;20060;-54
2022/03/08 05:40:40;;;;;;;4.28;2.08;;;;;;;;;;6081264;23;20064;-57
2022/03/08 05:43:07;;;;;;;3.72;1.90;;;;;;;;;;6057589;23;20036;-55
2022/03/08 05:45:34;;;;;;;9.77;2.47;;;;;;;;;;6050407;23;20108;-53
2022/03/08 05:48:04;;;;;;;4.60;2.03;;;;;;;;;;6081997;23;20032;-56
2022/03/08 05:50:31;;;;;;;6.97;2.83;;;;;;;;;;6066733;23;20177;-56
2022/03/08 05:52:57;;;;;;;5.97;2.35;;;;;;;;;;6085958;23;20059;-56
2022/03/08 05:55:24;;;;;;;4.43;2.33;;;;;;;;;;6080279;23;20067;-58
2022/03/08 05:57:53;;;;;;;2.65;1.45;;;;;;;;;;6088401;23;20123;-61
2022/03/08 06:00:20;;;;;;;5.88;2.58;;;;;;;;;;6078618;23;20094;-59
2022/03/08 06:02:46;;;;;;;7.35;2.72;;;;;;;;;;6086129;23;20036;-54
2022/03/08 06:05:14;;;;;;;8.00;3.35;;;;;;;;;;6060977;23;20084;-58
2022/03/08 06:07:41;;;;;;;5.30;2.33;;;;;;;;;;6054596;23;20041;-50
2022/03/08 06:10:11;;;;;;;6.60;3.13;;;;;;;;;;6046440;23;20048;-57
2022/03/08 06:12:38;;;;;;;7.68;2.33;;;;;;;;;;6055582;23;20048;-47
2022/03/08 06:15:05;;;;;;;12.23;3.05;;;;;;;;;;6049238;23;20040;-56
2022/03/08 06:17:32;;;;;;;4.95;2.00;;;;;;;;;;6055051;23;20036;-54
2022/03/08 06:19:58;;;;;;;7.45;2.85;;;;;;;;;;6073277;23;20063;-53
2022/03/08 06:22:26;;;;;;;7.20;2.95;;;;;;;;;;6054722;23;20044;-53
2022/03/08 06:24:54;;;;;;;6.45;2.78;;;;;;;;;;6052944;23;20039;-58
2022/03/08 06:27:20;;;;;;;7.65;2.50;;;;;;;;;;6076693;23;20090;-54
2022/03/08 06:29:47;;;;;;;5.72;2.60;;;;;;;;;;6054179;23;20052;-55
2022/03/08 06:32:13;;;;;;;5.38;2.28;;;;;;;;;;6048098;23;20048;-55
2022/03/08 06:34:41;;;;;;;7.22;2.47;;;;;;;;;;6055044;23;20099;-60
2022/03/08 06:37:08;;;;;;;5.07;2.53;;;;;;;;;;6051295;23;20075;-56
2022/03/08 06:39:36;;;;;;;5.05;2.38;;;;;;;;;;6054515;23;20126;-57
2022/03/08 06:42:02;;;;;;;7.17;2.73;;;;;;;;;;6051198;23;20055;-58
2022/03/08 06:44:29;;;;;;;6.03;2.75;;;;;;;;;;6056189;23;20040;-55
2022/03/08 06:46:55;;;;;;;5.60;2.55;;;;;;;;;;6050480;23;20136;-59
2022/03/08 06:49:22;;;;;;;7.22;2.85;;;;;;;;;;6056640;23;20155;-55
2022/03/08 06:51:48;;;;;;;6.45;3.15;;;;;;;;;;6049839;23;20094;-60
2022/03/08 06:54:16;;;;;;;6.70;2.88;;;;;;;;;;6057492;23;20071;-55
2022/03/08 06:56:44;;;;;;;2.83;1.65;;;;;;;;;;6057532;23;20032;-57
2022/03/08 06:59:11;;;;;;;4.77;2.10;;;;;;;;;;6079302;23;20033;-61
2022/03/08 07:01:37;;;;;;;4.95;2.13;;;;;;;;;;6054930;23;20032;-61
2022/03/08 07:04:07;;;;;;;8.52;2.85;;;;;;;;;;6086535;23;20036;-57
2022/03/08 07:06:34;;;;;;;11.10;2.55;;;;;;;;;;6078908;23;20036;-60
2022/03/08 07:09:02;;;;;;;6.82;2.72;;;;;;;;;;6086093;23;20043;-58
2022/03/08 07:11:28;;;;;;;5.18;2.25;;;;;;;;;;6086394;23;20044;-59
2022/03/08 07:13:56;;;;;;;5.97;2.42;;;;;;;;;;6078317;23;20040;-62
2022/03/08 07:16:23;;;;;;;6.32;2.78;;;;;;;;;;6086220;23;20036;-60
2022/03/08 07:18:50;;;;;;;6.10;2.80;;;;;;;;;;6078007;23;20063;-60
2022/03/08 07:21:16;;;;;;;7.20;2.47;;;;;;;;;;6086627;23;20051;-63
2022/03/08 07:23:43;;;;;;;3.55;1.40;;;;;;;;;;6071039;23;20070;-62
2022/03/08 07:26:10;;;;;;;6.05;2.50;;;;;;;;;;6089052;23;20036;-63
2022/03/08 07:28:37;;;;;;;6.80;3.15;;;;;;;;;;6065039;23;20052;-62
2022/03/08 07:31:05;;;;;;;7.00;2.78;;;;;;;;;;6037413;23;20072;-55
2022/03/08 07:33:32;;;;;;;4.40;1.92;;;;;;;;;;6048483;23;20086;-55
2022/03/08 07:35:59;;;;;;;7.25;3.05;;;;;;;;;;6062410;23;20115;-57
2022/03/08 07:38:26;;;;;;;4.80;2.40;;;;;;;;;;6057468;23;20087;-60
2022/03/08 07:40:52;;;;;;;8.18;2.67;;;;;;;;;;6085135;23;20039;-58
2022/03/08 07:43:19;;;;;;;4.47;2.38;;;;;;;;;;6078609;23;20063;-59
2022/03/08 07:45:46;;;;;;;8.75;2.28;;;;;;;;;;6085830;23;20040;-54
2022/03/08 07:48:14;;;;;;;10.68;3.15;;;;;;;;;;6077068;23;20035;-61
2022/03/08 07:50:41;;;;;;;6.85;2.83;;;;;;;;;;6084919;23;20044;-58
2022/03/08 07:53:07;;;;;;;5.03;2.28;;;;;;;;;;6061341;23;20098;-62
2022/03/08 07:55:34;;;;;;;6.85;2.58;;;;;;;;;;6053572;23;20044;-59
2022/03/08 07:58:01;;;;;;;7.55;3.10;;;;;;;;;;6027258;23;20037;-57
2022/03/08 08:00:28;;;;;;;5.88;2.55;;;;;;;;;;6067840;23;20070;-56
2022/03/08 08:02:55;;;;;;;7.47;3.38;;;;;;;;;;6084599;23;20040;-48
2022/03/08 08:05:24;;;;;;;4.35;2.38;;;;;;;;;;6078435;23;20040;-52
2022/03/08 08:07:50;;;;;;;4.38;1.98;;;;;;;;;;6084253;23;20082;-56
2022/03/08 08:10:17;;;;;;;4.60;1.70;;;;;;;;;;6078137;23;20032;-59
2022/03/08 08:12:43;;;;;;;8.20;2.65;;;;;;;;;;6085713;23;20070;-56
2022/03/08 08:15:10;;;;;;;4.65;2.38;;;;;;;;;;6065821;23;20044;-55
2022/03/08 08:17:37;;;;;;;5.28;2.05;;;;;;;;;;6055552;23;20123;-54
2022/03/08 08:20:03;;;;;;;5.63;2.35;;;;;;;;;;6059041;23;20103;-49
2022/03/08 08:22:31;;;;;;;2.75;1.25;;;;;;;;;;6088801;23;20028;-55
2022/03/08 08:24:58;;;;;;;2.20;1.15;;;;;;;;;;6081864;23;20028;-59
2022/03/08 08:27:25;;;;;;;7.45;2.75;;;;;;;;;;6086046;23;20040;-50
2022/03/08 08:29:52;;;;;;;6.70;2.97;;;;;;;;;;6072495;23;20041;-50
2022/03/08 08:32:19;;;;;;;6.90;2.78;;;;;;;;;;6057337;23;20095;-57
2022/03/08 08:34:45;;;;;;;8.45;3.03;;;;;;;;;;6057746;23;20036;-57
2022/03/08 08:37:12;;;;;;;8.27;3.63;;;;;;;;;;6051253;23;20048;-58
2022/03/08 08:39:40;;;;;;;4.53;1.30;;;;;;;;;;6080721;23;20045;-55
2022/03/08 08:42:08;;;;;;;6.53;2.95;;;;;;;;;;6032027;23;20109;-57
2022/03/08 08:44:36;;;;;;;6.30;2.80;;;;;;;;;;6028778;23;20128;-53
2022/03/08 08:47:03;;;;;;;8.35;3.40;;;;;;;;;;6064816;23;20036;-56
2022/03/08 08:49:29;;;;;;;6.00;2.22;;;;;;;;;;6086171;23;20105;-54
2022/03/08 08:51:56;;;;;;;9.40;3.05;;;;;;;;;;6081272;23;20040;-56
2022/03/08 08:54:24;;;;;;;3.30;1.23;;;;;;;;;;6089668;23;20032;-60
2022/03/08 08:56:53;;;;;;;6.68;2.63;;;;;;;;;;6079113;23;20040;-56
2022/03/08 08:59:23;;;;;;;8.07;3.10;;;;;;;;;;6061016;23;20056;-54
2022/03/08 09:01:49;;;;;;;5.03;2.08;;;;;;;;;;6019878;23;20086;-59
2022/03/08 09:04:18;;;;;;;6.25;2.78;;;;;;;;;;6056916;23;20041;-58
2022/03/08 09:06:45;;;;;;;5.90;3.00;;;;;;;;;;6050767;23;20060;-57
2022/03/08 09:09:12;;;;;;;7.25;2.60;;;;;;;;;;6056035;23;20119;-57
2022/03/08 09:11:38;;;;;;;10.63;2.63;;;;;;;;;;6051102;23;20032;-59
2022/03/08 09:14:09;;;;;;;4.32;1.27;;;;;;;;;;6057031;23;20032;-53
2022/03/08 09:16:35;;;;;;;3.20;1.48;;;;;;;;;;6050268;23;20036;-56
2022/03/08 09:19:02;;;;;;;6.97;2.53;;;;;;;;;;6056316;23;20036;-57
2022/03/08 09:21:29;;;;;;;4.95;2.20;;;;;;;;;;6056923;23;20040;-54
2022/03/08 09:23:57;;;;;;;9.75;2.90;;;;;;;;;;6044144;23;20032;-57
2022/03/08 09:26:24;;;;;;;4.80;2.10;;;;;;;;;;6047124;23;20063;-58
2022/03/08 09:28:53;;;;;;;8.82;3.15;;;;;;;;;;6050003;23;20052;-52
2022/03/08 09:31:22;;;;;;;5.47;2.40;;;;;;;;;;6056246;23;20044;-58
2022/03/08 09:33:50;;;;;;;5.15;2.20;;;;;;;;;;6050461;23;20037;-55
2022/03/08 09:36:16;;;;;;;6.95;2.90;;;;;;;;;;6056018;23;20126;-53
2022/03/08 09:38:44;;;;;;;5.80;1.88;;;;;;;;;;6049962;23;20083;-52
2022/03/08 09:41:11;;;;;;;11.27;2.58;;;;;;;;;;6054967;23;20041;-52
2022/03/08 09:43:38;;;;;;;5.28;2.65;;;;;;;;;;6039871;23;20044;-58
2022/03/08 09:46:05;;;;;;;7.68;3.25;;;;;;;;;;6058159;23;20078;-58
2022/03/08 09:48:35;;;;;;;9.20;3.05;;;;;;;;;;6029438;23;20039;-55
2022/03/08 09:51:02;;;;;;;5.35;2.03;;;;;;;;;;6057678;23;20041;-59
2022/03/08 09:53:35;;;;;;;10.80;2.95;;;;;;;;;;6051240;23;20036;-54
2022/03/08 09:56:02;;;;;;;6.53;2.80;;;;;;;;;;6043023;23;20047;-59
2022/03/08 09:58:29;;;;;;;4.88;2.20;;;;;;;;;;6049918;23;20064;-52
2022/03/08 10:00:59;;;;;;;4.97;2.42;;;;;;;;;;6053273;23;20045;-57
2022/03/08 10:03:31;;;;;;;2.63;1.10;;;;;;;;;;6050437;23;20571;-53
2022/03/08 10:06:00;;;;;;;3.42;1.88;;;;;;;;;;6057245;23;20035;-57
2022/03/08 10:08:28;;;;;;;7.72;2.70;;;;;;;;;;6051425;23;20055;-55
2022/03/08 10:10:58;;;;;;;2.45;1.27;;;;;;;;;;6057256;23;20055;-56
2022/03/08 10:13:32;;;;;;;5.50;2.40;;;;;;;;;;6057139;23;20036;-58
2022/03/08 10:16:12;;;;;;;7.93;3.10;;;;;;;;;;6057208;23;20111;-59
2022/03/08 10:18:40;;;;;;;4.00;1.73;;;;;;;;;;6058264;23;20036;-58
2022/03/08 10:21:24;;;;;;;7.63;2.90;;;;;;;;;;6046029;23;20051;-60
2022/03/08 10:23:52;;;;;;;7.30;2.90;;;;;;;;;;6059686;23;20036;-61
2022/03/08 10:26:19;;;;;;;8.93;3.15;;;;;;;;;;6052873;23;20036;-55
2022/03/08 10:28:49;;;;;;;3.30;1.35;;;;;;;;;;6043735;23;20111;-59
2022/03/08 10:31:16;;;;;;;9.40;2.72;;;;;;;;;;6047679;23;20071;-57
2022/03/08 10:33:43;;;;;;;2.42;1.20;;;;;;;;;;6055595;23;20036;-57
2022/03/08 10:36:17;;;;;;;2.55;1.17;;;;;;;;;;6048637;23;20032;-53
2022/03/08 10:39:03;;;;;;;4.28;2.17;;;;;;;;;;6055244;23;20051;-53
2022/03/08 10:41:29;;;;;;;8.90;3.55;;;;;;;;;;6044473;23;20040;-53
2022/03/08 10:43:59;;;;;;;7.28;2.97;;;;;;;;;;6055226;23;20044;-54
2022/03/08 10:46:28;;;;;;;4.82;2.03;;;;;;;;;;6049309;23;20086;-56
2022/03/08 10:48:55;;;;;;;6.20;3.05;;;;;;;;;;6054836;23;20087;-48
2022/03/08 10:51:23;;;;;;;6.47;2.17;;;;;;;;;;6052936;23;20060;-52
2022/03/08 10:53:50;;;;;;;6.05;2.83;;;;;;;;;;6056043;23;20048;-54
2022/03/08 10:56:24;;;;;;;6.63;2.88;;;;;;;;;;6050027;23;20098;-58
2022/03/08 10:58:51;;;;;;;3.15;1.48;;;;;;;;;;6080348;23;20037;-52
2022/03/08 11:01:17;;;;;;;7.70;2.83;;;;;;;;;;6074049;23;20041;-53
2022/03/08 11:03:57;;;;;;;3.03;0.98;;;;;;;;;;6055279;23;20041;-52
2022/03/08 11:06:29;;;;;;;5.13;2.38;;;;;;;;;;6050081;23;20032;-52
2022/03/08 11:09:00;;;;;;;6.35;2.60;;;;;;;;;;6047005;23;20045;-54
2022/03/08 11:11:26;;;;;;;5.60;2.30;;;;;;;;;;6049992;23;20037;-53
2022/03/08 11:13:58;;;;;;;5.78;2.28;;;;;;;;;;6056474;23;20040;-54
2022/03/08 11:16:26;;;;;;;5.03;2.10;;;;;;;;;;6041553;23;20047;-60
2022/03/08 11:18:54;;;;;;;3.95;1.73;;;;;;;;;;6057244;23;20051;-50
2022/03/08 11:21:21;;;;;;;2.08;1.15;;;;;;;;;;6049807;23;20063;-54
2022/03/08 11:23:51;;;;;;;6.50;2.25;;;;;;;;;;6055802;23;20123;-53
2022/03/08 11:26:18;;;;;;;4.82;2.10;;;;;;;;;;6055383;23;20055;-52
2022/03/08 11:28:46;;;;;;;8.50;2.55;;;;;;;;;;6050829;23;20107;-51
2022/03/08 11:31:13;;;;;;;5.78;2.38;;;;;;;;;;6056468;23;20067;-58
2022/03/08 11:33:44;;;;;;;4.25;1.95;;;;;;;;;;6049841;23;20040;-53
2022/03/08 11:36:16;;;;;;;6.38;2.35;;;;;;;;;;6056510;23;20087;-59
2022/03/08 11:38:42;;;;;;;1.65;0.85;;;;;;;;;;6049672;23;20052;-50
2022/03/08 11:41:10;;;;;;;6.78;2.72;;;;;;;;;;6056159;23;20048;-54
2022/03/08 11:43:39;;;;;;;2.95;1.23;;;;;;;;;;6051088;23;20040;-55
2022/03/08 11:46:14;;;;;;;5.13;2.33;;;;;;;;;;6058353;23;20068;-54
2022/03/08 11:48:50;;;;;;;5.30;2.22;;;;;;;;;;6031270;23;20062;-56
2022/03/08 11:51:17;;;;;;;2.53;1.42;;;;;;;;;;6052144;23;20040;-60
2022/03/08 11:53:47;;;;;;;3.20;1.48;;;;;;;;;;6042729;23;20040;-64
2022/03/08 11:56:23;;;;;;;5.22;1.75;;;;;;;;;;6051105;23;20048;-55
2022/03/08 11:58:50;;;;;;;5.50;2.70;;;;;;;;;;6051101;23;20047;-56
2022/03/08 12:01:23;;;;;;;4.78;2.30;;;;;;;;;;6057645;23;20044;-54
2022/03/08 12:03:54;;;;;;;8.05;2.72;;;;;;;;;;6051258;23;20043;-54
2022/03/08 12:06:29;;;;;;;5.43;2.35;;;;;;;;;;6047179;23;20082;-57
2022/03/08 12:09:07;;;;;;;4.85;2.33;;;;;;;;;;6050799;23;20041;-55
2022/03/08 12:11:38;;;;;;;5.63;2.17;;;;;;;;;;6056083;23;20048;-57
2022/03/08 12:14:07;;;;;;;1.25;0.63;;;;;;;;;;6051034;23;20032;-54
2022/03/08 12:16:33;;;;;;;;;;;;;;;;;;6054178;23;20025;-59
2022/03/08 12:19:01;;;;;;;9.85;2.38;;;;;;;;;;6050480;23;19924;-54
2022/03/08 12:21:31;;;;;;;5.32;1.98;;;;;;;;;;6056550;23;20094;-60
2022/03/08 12:23:59;;;;;;;6.88;2.08;;;;;;;;;;6050514;23;20067;-61
2022/03/08 12:26:26;;;;;;;5.22;2.45;;;;;;;;;;6056930;23;20041;-64
2022/03/08 12:29:11;;;;;;;5.72;2.58;;;;;;;;;;6051469;23;20033;-56
2022/03/08 12:31:56;;;;;;;4.53;2.17;;;;;;;;;;6048028;23;20046;-55
2022/03/08 12:34:35;;;;;;;7.13;2.70;;;;;;;;;;6050460;23;20029;-59
2022/03/08 12:37:07;;;;;;;5.30;2.03;;;;;;;;;;6056654;23;20040;-60
2022/03/08 12:39:50;;;;;;;8.60;2.42;;;;;;;;;;6042412;23;20035;-58
2022/03/08 12:42:18;;;;;;;6.07;2.60;;;;;;;;;;6057141;23;20036;-61
2022/03/08 12:44:58;;;;;;;4.65;2.38;;;;;;;;;;6050176;23;20090;-59
2022/03/08 12:47:29;;;;;;;8.13;2.10;;;;;;;;;;6057704;23;20033;-56
2022/03/08 12:49:59;;;;;;;4.07;1.67;;;;;;;;;;6038497;23;20041;-58
2022/03/08 12:52:31;;;;;;;5.25;2.75;;;;;;;;;;6058626;23;20081;-59
2022/03/08 12:54:59;;;;;;;6.18;2.70;;;;;;;;;;6023649;23;20098;-60
2022/03/08 12:57:26;;;;;;;5.30;2.47;;;;;;;;;;6056759;23;20029;-55
2022/03/08 12:59:54;;;;;;;7.82;2.65;;;;;;;;;;6056719;23;20051;-55
2022/03/08 13:02:22;;;;;;;5.22;2.38;;;;;;;;;;6050774;23;20036;-57
2022/03/08 13:04:49;;;;;;;5.50;2.53;;;;;;;;;;6057623;23;20032;-64
2022/03/08 13:07:16;;;;;;;7.35;2.72;;;;;;;;;;6050474;23;20323;-59
2022/03/08 13:09:53;;;;;;;4.43;2.25;;;;;;;;;;6056895;23;20032;-59
2022/03/08 13:12:21;;;;;;;6.47;2.30;;;;;;;;;;6038422;23;20067;-60
2022/03/08 13:15:15;;;;;;;7.40;2.72;;;;;;;;;;6058089;23;20044;-56
2022/03/08 13:17:46;;;;;;;7.85;2.70;;;;;;;;;;6016724;23;20043;-60
2022/03/08 13:20:32;;;;;;;12.63;2.90;;;;;;;;;;6056866;23;20044;-62
2022/03/08 13:22:59;;;;;;;5.90;2.88;;;;;;;;;;6051918;23;20063;-58
2022/03/08 13:25:30;;;;;;;4.65;2.40;;;;;;;;;;6058920;23;20144;-62
2022/03/08 13:28:00;;;;;;;5.82;2.70;;;;;;;;;;6054258;23;20098;-64
2022/03/08 13:30:28;;;;;;;5.88;2.45;;;;;;;;;;6059848;23;20041;-59
2022/03/08 13:33:24;;;;;;;6.25;2.60;;;;;;;;;;6051469;23;20045;-62
2022/03/08 13:35:56;;;;;;;6.00;2.38;;;;;;;;;;6003462;23;20060;-61
2022/03/08 13:38:23;;;;;;;5.43;2.22;;;;;;;;;;6038417;23;20033;-64
2022/03/08 13:40:51;;;;;;;7.55;2.83;;;;;;;;;;6056899;23;20036;-60
2022/03/08 13:43:18;;;;;;;7.88;3.00;;;;;;;;;;6048731;23;20063;-57
2022/03/08 13:45:45;;;;;;;5.55;2.70;;;;;;;;;;6057107;23;20033;-59
2022/03/08 13:48:17;;;;;;;5.47;2.80;;;;;;;;;;6049833;23;20040;-57
2022/03/08 13:50:46;;;;;;;4.80;2.60;;;;;;;;;;6056362;23;20047;-58
2022/03/08 13:53:14;;;;;;;6.50;3.20;;;;;;;;;;6051298;23;20056;-63
2022/03/08 13:55:42;;;;;;;7.13;2.80;;;;;;;;;;6056373;23;20098;-59
2022/03/08 13:58:13;;;;;;;4.78;2.25;;;;;;;;;;6040956;23;20055;-58
2022/03/08 14:00:40;;;;;;;6.90;3.17;;;;;;;;;;6057412;23;20106;-63
2022/03/08 14:03:09;;;;;;;6.25;2.30;;;;;;;;;;6050628;23;20041;-59
2022/03/08 14:05:55;;;;;;;8.63;3.20;;;;;;;;;;6056922;23;20036;-58
2022/03/08 14:08:31;;;;;;;7.90;3.15;;;;;;;;;;6049963;23;20036;-60
2022/03/08 14:11:20;;;;;;;6.45;3.05;;;;;;;;;;5072160;27;20892;-55
2022/03/08 14:13:53;;;;;;;10.27;3.15;;;;;;;;;;5049741;28;20041;-57
2022/03/08 14:16:20;;;;;;;4.93;2.28;;;;;;;;;;5063897;28;20067;-55
2022/03/08 14:18:50;;;;;;;5.57;2.58;;;;;;;;;;5040884;28;20048;-52
2022/03/08 14:21:24;;;;;;;7.18;3.17;;;;;;;;;;5046473;28;20112;-54
2022/03/08 14:23:53;;;;;;;6.82;3.00;;;;;;;;;;5041003;28;20044;-52
2022/03/08 14:26:23;;;;;;;7.05;3.25;;;;;;;;;;5046853;28;20131;-53
2022/03/08 14:29:01;;;;;;;6.30;3.15;;;;;;;;;;5040842;28;20048;-55
2022/03/08 14:31:28;;;;;;;7.47;3.25;;;;;;;;;;5030067;28;20044;-51
2022/03/08 14:34:03;;;;;;;7.45;2.95;;;;;;;;;;5034666;28;20060;-59
2022/03/08 14:36:31;;;;;;;6.05;2.53;;;;;;;;;;5044602;28;20045;-56
2022/03/08 14:38:57;;;;;;;5.93;2.78;;;;;;;;;;5040739;28;20060;-55
2022/03/08 14:41:26;;;;;;;5.72;2.83;;;;;;;;;;5045963;28;20056;-58
2022/03/08 14:43:53;;;;;;;6.63;2.92;;;;;;;;;;5046717;28;20064;-56
2022/03/08 14:46:19;;;;;;;11.18;2.95;;;;;;;;;;5040015;28;20049;-58
2022/03/08 14:48:46;;;;;;;5.03;2.35;;;;;;;;;;5046378;28;20041;-60
2022/03/08 14:51:14;;;;;;;6.28;3.33;;;;;;;;;;5040415;28;20067;-57